sensor_id;sensor_type;location;lat;lon;timestamp;P1;durP1;ratioP1;P2;durP2;ratioP2
5587;SDS011;2816;49.778;9.986;2024-02-26T00:00:07;6.77;;;4.03;;
5587;SDS011;2816;49.778;9.986;2024-02-26T00:02:35;10.67;;;5.33;;
5587;SDS011;2816;49.778;9.986;2024-02-26T00:05:05;5.90;;;4.50;;
5587;SDS011;2816;49.778;9.986;2024-02-26T00:07:33;6.93;;;4.73;;
5587;SDS011;2816;49.778;9.986;2024-02-26T00:10:00;5.43;;;4.00;;
5587;SDS011;2816;49.778;9.986;2024-02-26T00:12:27;5.10;;;3.70;;
5587;SDS011;2816;49.778;9.986;2024-02-26T00:14:54;8.00;;;4.90;;
5587;SDS011;2816;49.778;9.986;2024-02-26T00:17:23;5.77;;;4.30;;
5587;SDS011;2816;49.778;9.986;2024-02-26T00:19:50;9.40;;;4.90;;
5587;SDS011;2816;49.778;9.986;2024-02-26T00:22:20;9.17;;;5.70;;
5587;SDS011;2816;49.778;9.986;2024-02-26T00:24:47;5.60;;;4.30;;
5587;SDS011;2816;49.778;9.986;2024-02-26T00:27:14;9.27;;;4.93;;
5587;SDS011;2816;49.778;9.986;2024-02-26T00:29:41;10.27;;;5.10;;
5587;SDS011;2816;49.778;9.986;2024-02-26T00:32:07;7.60;;;5.00;;
5587;SDS011;2816;49.778;9.986;2024-02-26T00:34:35;9.70;;;4.73;;
5587;SDS011;2816;49.778;9.986;2024-02-26T00:37:01;6.10;;;4.43;;
5587;SDS011;2816;49.778;9.986;2024-02-26T00:39:30;5.70;;;4.60;;
5587;SDS011;2816;49.778;9.986;2024-02-26T00:41:57;5.53;;;4.20;;
5587;SDS011;2816;49.778;9.986;2024-02-26T00:44:24;5.87;;;4.07;;
5587;SDS011;2816;49.778;9.986;2024-02-26T00:46:51;5.93;;;4.27;;
5587;SDS011;2816;49.778;9.986;2024-02-26T00:49:18;6.30;;;4.17;;
5587;SDS011;2816;49.778;9.986;2024-02-26T00:51:45;7.53;;;4.83;;
5587;SDS011;2816;49.778;9.986;2024-02-26T00:54:11;4.07;;;3.57;;
5587;SDS011;2816;49.778;9.986;2024-02-26T00:56:40;8.67;;;4.87;;
5587;SDS011;2816;49.778;9.986;2024-02-26T00:59:07;5.10;;;4.10;;
5587;SDS011;2816;49.778;9.986;2024-02-26T01:01:33;7.80;;;4.40;;
5587;SDS011;2816;49.778;9.986;2024-02-26T01:04:01;6.97;;;4.10;;
5587;SDS011;2816;49.778;9.986;2024-02-26T01:06:28;5.90;;;4.30;;
5587;SDS011;2816;49.778;9.986;2024-02-26T01:08:55;5.70;;;4.30;;
5587;SDS011;2816;49.778;9.986;2024-02-26T01:11:22;6.80;;;4.13;;
5587;SDS011;2816;49.778;9.986;2024-02-26T01:13:50;5.90;;;4.83;;
5587;SDS011;2816;49.778;9.986;2024-02-26T01:16:21;4.80;;;3.93;;
5587;SDS011;2816;49.778;9.986;2024-02-26T01:18:48;4.50;;;3.63;;
5587;SDS011;2816;49.778;9.986;2024-02-26T01:21:15;5.40;;;4.07;;
5587;SDS011;2816;49.778;9.986;2024-02-26T01:23:42;5.60;;;4.13;;
5587;SDS011;2816;49.778;9.986;2024-02-26T01:26:09;4.33;;;3.53;;
5587;SDS011;2816;49.778;9.986;2024-02-26T01:28:35;4.90;;;4.10;;
5587;SDS011;2816;49.778;9.986;2024-02-26T01:31:04;7.17;;;4.30;;
5587;SDS011;2816;49.778;9.986;2024-02-26T01:33:33;8.43;;;4.73;;
5587;SDS011;2816;49.778;9.986;2024-02-26T01:36:00;6.07;;;3.93;;
5587;SDS011;2816;49.778;9.986;2024-02-26T01:38:27;5.43;;;4.00;;
5587;SDS011;2816;49.778;9.986;2024-02-26T01:40:54;7.13;;;4.27;;
5587;SDS011;2816;49.778;9.986;2024-02-26T01:43:21;5.77;;;4.30;;
5587;SDS011;2816;49.778;9.986;2024-02-26T01:45:48;6.30;;;4.70;;
5587;SDS011;2816;49.778;9.986;2024-02-26T01:48:16;6.10;;;4.57;;
5587;SDS011;2816;49.778;9.986;2024-02-26T01:50:43;4.77;;;4.13;;
5587;SDS011;2816;49.778;9.986;2024-02-26T01:53:10;5.63;;;4.30;;
5587;SDS011;2816;49.778;9.986;2024-02-26T01:55:38;4.43;;;3.70;;
5587;SDS011;2816;49.778;9.986;2024-02-26T01:58:05;6.47;;;3.77;;
5587;SDS011;2816;49.778;9.986;2024-02-26T02:00:32;6.57;;;4.50;;
5587;SDS011;2816;49.778;9.986;2024-02-26T02:03:00;5.77;;;4.33;;
5587;SDS011;2816;49.778;9.986;2024-02-26T02:05:29;4.70;;;3.73;;
5587;SDS011;2816;49.778;9.986;2024-02-26T02:07:57;8.43;;;4.20;;
5587;SDS011;2816;49.778;9.986;2024-02-26T02:10:25;7.97;;;3.80;;
5587;SDS011;2816;49.778;9.986;2024-02-26T02:12:54;5.20;;;4.17;;
5587;SDS011;2816;49.778;9.986;2024-02-26T02:15:21;3.63;;;3.33;;
5587;SDS011;2816;49.778;9.986;2024-02-26T02:17:48;5.30;;;3.70;;
5587;SDS011;2816;49.778;9.986;2024-02-26T02:20:15;5.80;;;4.33;;
5587;SDS011;2816;49.778;9.986;2024-02-26T02:22:44;4.20;;;3.10;;
5587;SDS011;2816;49.778;9.986;2024-02-26T02:25:13;5.20;;;4.17;;
5587;SDS011;2816;49.778;9.986;2024-02-26T02:27:40;6.23;;;3.90;;
5587;SDS011;2816;49.778;9.986;2024-02-26T02:30:08;5.33;;;4.20;;
5587;SDS011;2816;49.778;9.986;2024-02-26T02:32:36;5.60;;;3.83;;
5587;SDS011;2816;49.778;9.986;2024-02-26T02:35:06;4.23;;;3.73;;
5587;SDS011;2816;49.778;9.986;2024-02-26T02:37:33;5.93;;;4.10;;
5587;SDS011;2816;49.778;9.986;2024-02-26T02:40:02;4.50;;;3.80;;
5587;SDS011;2816;49.778;9.986;2024-02-26T02:42:30;6.63;;;4.10;;
5587;SDS011;2816;49.778;9.986;2024-02-26T02:44:57;3.97;;;3.57;;
5587;SDS011;2816;49.778;9.986;2024-02-26T02:47:24;4.33;;;3.53;;
5587;SDS011;2816;49.778;9.986;2024-02-26T02:49:51;6.77;;;4.23;;
5587;SDS011;2816;49.778;9.986;2024-02-26T02:52:17;5.93;;;4.03;;
5587;SDS011;2816;49.778;9.986;2024-02-26T02:54:44;10.13;;;4.07;;
5587;SDS011;2816;49.778;9.986;2024-02-26T02:57:13;5.53;;;4.07;;
5587;SDS011;2816;49.778;9.986;2024-02-26T02:59:40;3.93;;;3.23;;
5587;SDS011;2816;49.778;9.986;2024-02-26T03:02:07;5.10;;;3.80;;
5587;SDS011;2816;49.778;9.986;2024-02-26T03:04:35;5.53;;;3.60;;
5587;SDS011;2816;49.778;9.986;2024-02-26T03:07:02;5.50;;;3.90;;
5587;SDS011;2816;49.778;9.986;2024-02-26T03:09:29;6.27;;;3.70;;
5587;SDS011;2816;49.778;9.986;2024-02-26T03:11:56;5.53;;;3.87;;
5587;SDS011;2816;49.778;9.986;2024-02-26T03:14:24;6.47;;;4.10;;
5587;SDS011;2816;49.778;9.986;2024-02-26T03:16:53;5.50;;;3.53;;
5587;SDS011;2816;49.778;9.986;2024-02-26T03:19:21;6.10;;;3.87;;
5587;SDS011;2816;49.778;9.986;2024-02-26T03:21:47;6.20;;;4.23;;
5587;SDS011;2816;49.778;9.986;2024-02-26T03:24:14;7.63;;;4.53;;
5587;SDS011;2816;49.778;9.986;2024-02-26T03:26:41;10.03;;;4.87;;
5587;SDS011;2816;49.778;9.986;2024-02-26T03:29:08;7.30;;;4.37;;
5587;SDS011;2816;49.778;9.986;2024-02-26T03:31:36;6.07;;;4.37;;
5587;SDS011;2816;49.778;9.986;2024-02-26T03:34:03;6.20;;;4.33;;
5587;SDS011;2816;49.778;9.986;2024-02-26T03:36:30;6.03;;;4.30;;
5587;SDS011;2816;49.778;9.986;2024-02-26T03:38:57;6.90;;;4.17;;
5587;SDS011;2816;49.778;9.986;2024-02-26T03:41:25;5.53;;;4.27;;
5587;SDS011;2816;49.778;9.986;2024-02-26T03:43:51;6.43;;;4.63;;
5587;SDS011;2816;49.778;9.986;2024-02-26T03:46:19;7.50;;;4.10;;
5587;SDS011;2816;49.778;9.986;2024-02-26T03:48:47;6.03;;;4.27;;
5587;SDS011;2816;49.778;9.986;2024-02-26T03:51:14;4.80;;;4.07;;
5587;SDS011;2816;49.778;9.986;2024-02-26T03:53:41;7.40;;;4.97;;
5587;SDS011;2816;49.778;9.986;2024-02-26T03:56:09;5.00;;;4.20;;
5587;SDS011;2816;49.778;9.986;2024-02-26T03:58:38;6.53;;;4.00;;
5587;SDS011;2816;49.778;9.986;2024-02-26T04:01:07;4.80;;;3.37;;
5587;SDS011;2816;49.778;9.986;2024-02-26T04:03:34;7.77;;;4.10;;
5587;SDS011;2816;49.778;9.986;2024-02-26T04:06:02;5.20;;;4.03;;
5587;SDS011;2816;49.778;9.986;2024-02-26T04:08:30;5.00;;;3.90;;
5587;SDS011;2816;49.778;9.986;2024-02-26T04:10:57;6.37;;;4.63;;
5587;SDS011;2816;49.778;9.986;2024-02-26T04:13:24;7.13;;;4.23;;
5587;SDS011;2816;49.778;9.986;2024-02-26T04:15:51;12.60;;;5.23;;
5587;SDS011;2816;49.778;9.986;2024-02-26T04:18:18;8.33;;;5.07;;
5587;SDS011;2816;49.778;9.986;2024-02-26T04:20:45;25.43;;;8.07;;
5587;SDS011;2816;49.778;9.986;2024-02-26T04:23:15;10.13;;;5.33;;
5587;SDS011;2816;49.778;9.986;2024-02-26T04:25:42;9.53;;;5.37;;
5587;SDS011;2816;49.778;9.986;2024-02-26T04:28:10;11.57;;;5.30;;
5587;SDS011;2816;49.778;9.986;2024-02-26T04:30:37;21.90;;;8.30;;
5587;SDS011;2816;49.778;9.986;2024-02-26T04:33:04;15.27;;;5.97;;
5587;SDS011;2816;49.778;9.986;2024-02-26T04:35:31;13.43;;;5.73;;
5587;SDS011;2816;49.778;9.986;2024-02-26T04:38:00;7.20;;;4.27;;
5587;SDS011;2816;49.778;9.986;2024-02-26T04:40:28;10.83;;;4.17;;
5587;SDS011;2816;49.778;9.986;2024-02-26T04:42:55;6.87;;;4.10;;
5587;SDS011;2816;49.778;9.986;2024-02-26T04:45:22;6.03;;;4.23;;
5587;SDS011;2816;49.778;9.986;2024-02-26T04:47:49;13.57;;;4.20;;
5587;SDS011;2816;49.778;9.986;2024-02-26T04:50:16;6.10;;;4.20;;
5587;SDS011;2816;49.778;9.986;2024-02-26T04:52:42;5.80;;;4.07;;
5587;SDS011;2816;49.778;9.986;2024-02-26T04:55:09;6.10;;;3.77;;
5587;SDS011;2816;49.778;9.986;2024-02-26T04:57:37;7.63;;;3.80;;
5587;SDS011;2816;49.778;9.986;2024-02-26T05:00:04;9.50;;;4.80;;
5587;SDS011;2816;49.778;9.986;2024-02-26T05:02:32;9.90;;;5.03;;
5587;SDS011;2816;49.778;9.986;2024-02-26T05:05:03;7.10;;;4.03;;
5587;SDS011;2816;49.778;9.986;2024-02-26T05:07:30;7.10;;;4.30;;
5587;SDS011;2816;49.778;9.986;2024-02-26T05:09:57;5.43;;;4.10;;
5587;SDS011;2816;49.778;9.986;2024-02-26T05:12:24;5.90;;;4.70;;
5587;SDS011;2816;49.778;9.986;2024-02-26T05:14:52;5.47;;;3.63;;
5587;SDS011;2816;49.778;9.986;2024-02-26T05:17:19;6.30;;;4.20;;
5587;SDS011;2816;49.778;9.986;2024-02-26T05:19:46;6.07;;;4.30;;
5587;SDS011;2816;49.778;9.986;2024-02-26T05:22:13;7.40;;;4.10;;
5587;SDS011;2816;49.778;9.986;2024-02-26T05:24:40;5.63;;;4.53;;
5587;SDS011;2816;49.778;9.986;2024-02-26T05:27:07;8.60;;;3.80;;
5587;SDS011;2816;49.778;9.986;2024-02-26T05:29:34;6.87;;;4.67;;
5587;SDS011;2816;49.778;9.986;2024-02-26T05:32:04;7.47;;;4.90;;
5587;SDS011;2816;49.778;9.986;2024-02-26T05:34:32;8.00;;;5.17;;
5587;SDS011;2816;49.778;9.986;2024-02-26T05:36:59;9.80;;;5.13;;
5587;SDS011;2816;49.778;9.986;2024-02-26T05:39:26;10.17;;;5.70;;
5587;SDS011;2816;49.778;9.986;2024-02-26T05:41:53;9.53;;;5.80;;
5587;SDS011;2816;49.778;9.986;2024-02-26T05:44:20;11.10;;;6.40;;
5587;SDS011;2816;49.778;9.986;2024-02-26T05:46:48;14.27;;;5.83;;
5587;SDS011;2816;49.778;9.986;2024-02-26T05:49:17;15.83;;;6.10;;
5587;SDS011;2816;49.778;9.986;2024-02-26T05:51:45;8.00;;;4.60;;
5587;SDS011;2816;49.778;9.986;2024-02-26T05:54:12;13.57;;;7.47;;
5587;SDS011;2816;49.778;9.986;2024-02-26T05:56:39;13.77;;;7.00;;
5587;SDS011;2816;49.778;9.986;2024-02-26T05:59:06;8.70;;;6.30;;
5587;SDS011;2816;49.778;9.986;2024-02-26T06:01:34;12.70;;;6.90;;
5587;SDS011;2816;49.778;9.986;2024-02-26T06:04:01;13.93;;;7.70;;
5587;SDS011;2816;49.778;9.986;2024-02-26T06:06:29;28.27;;;9.23;;
5587;SDS011;2816;49.778;9.986;2024-02-26T06:08:56;19.03;;;9.37;;
5587;SDS011;2816;49.778;9.986;2024-02-26T06:11:23;11.77;;;6.80;;
5587;SDS011;2816;49.778;9.986;2024-02-26T06:13:50;11.97;;;8.00;;
5587;SDS011;2816;49.778;9.986;2024-02-26T06:16:17;12.80;;;7.07;;
5587;SDS011;2816;49.778;9.986;2024-02-26T06:18:44;13.37;;;7.80;;
5587;SDS011;2816;49.778;9.986;2024-02-26T06:21:11;16.33;;;7.83;;
5587;SDS011;2816;49.778;9.986;2024-02-26T06:23:39;16.63;;;8.33;;
5587;SDS011;2816;49.778;9.986;2024-02-26T06:26:06;14.13;;;9.10;;
5587;SDS011;2816;49.778;9.986;2024-02-26T06:28:33;15.37;;;8.90;;
5587;SDS011;2816;49.778;9.986;2024-02-26T06:31:00;20.27;;;9.43;;
5587;SDS011;2816;49.778;9.986;2024-02-26T06:33:27;16.37;;;9.63;;
5587;SDS011;2816;49.778;9.986;2024-02-26T06:35:54;17.50;;;9.60;;
5587;SDS011;2816;49.778;9.986;2024-02-26T06:38:21;12.90;;;7.60;;
5587;SDS011;2816;49.778;9.986;2024-02-26T06:40:51;23.87;;;10.17;;
5587;SDS011;2816;49.778;9.986;2024-02-26T06:43:17;15.63;;;8.80;;
5587;SDS011;2816;49.778;9.986;2024-02-26T06:45:44;16.37;;;8.70;;
5587;SDS011;2816;49.778;9.986;2024-02-26T06:48:11;15.53;;;9.07;;
5587;SDS011;2816;49.778;9.986;2024-02-26T06:50:38;24.20;;;12.10;;
5587;SDS011;2816;49.778;9.986;2024-02-26T06:53:06;16.80;;;8.80;;
5587;SDS011;2816;49.778;9.986;2024-02-26T06:55:33;18.67;;;9.57;;
5587;SDS011;2816;49.778;9.986;2024-02-26T06:58:01;18.00;;;10.00;;
5587;SDS011;2816;49.778;9.986;2024-02-26T07:00:28;17.20;;;9.43;;
5587;SDS011;2816;49.778;9.986;2024-02-26T07:02:55;23.27;;;10.30;;
5587;SDS011;2816;49.778;9.986;2024-02-26T07:05:22;15.63;;;7.60;;
5587;SDS011;2816;49.778;9.986;2024-02-26T07:07:49;16.10;;;9.30;;
5587;SDS011;2816;49.778;9.986;2024-02-26T07:10:16;21.50;;;9.83;;
5587;SDS011;2816;49.778;9.986;2024-02-26T07:12:43;14.27;;;8.17;;
5587;SDS011;2816;49.778;9.986;2024-02-26T07:15:11;15.13;;;8.60;;
5587;SDS011;2816;49.778;9.986;2024-02-26T07:17:38;20.43;;;9.30;;
5587;SDS011;2816;49.778;9.986;2024-02-26T07:20:07;15.47;;;9.30;;
5587;SDS011;2816;49.778;9.986;2024-02-26T07:22:35;18.97;;;9.40;;
5587;SDS011;2816;49.778;9.986;2024-02-26T07:25:01;18.63;;;9.60;;
5587;SDS011;2816;49.778;9.986;2024-02-26T07:27:29;15.13;;;10.07;;
5587;SDS011;2816;49.778;9.986;2024-02-26T07:29:56;15.53;;;8.93;;
5587;SDS011;2816;49.778;9.986;2024-02-26T07:32:24;15.67;;;9.67;;
5587;SDS011;2816;49.778;9.986;2024-02-26T07:34:51;15.33;;;9.73;;
5587;SDS011;2816;49.778;9.986;2024-02-26T07:37:18;17.20;;;8.90;;
5587;SDS011;2816;49.778;9.986;2024-02-26T07:39:44;18.30;;;9.37;;
5587;SDS011;2816;49.778;9.986;2024-02-26T07:42:11;15.67;;;9.87;;
5587;SDS011;2816;49.778;9.986;2024-02-26T07:44:38;17.23;;;9.40;;
5587;SDS011;2816;49.778;9.986;2024-02-26T07:47:08;14.90;;;8.80;;
5587;SDS011;2816;49.778;9.986;2024-02-26T07:49:36;18.63;;;10.40;;
5587;SDS011;2816;49.778;9.986;2024-02-26T07:52:03;12.77;;;8.60;;
5587;SDS011;2816;49.778;9.986;2024-02-26T07:54:30;13.83;;;9.30;;
5587;SDS011;2816;49.778;9.986;2024-02-26T07:56:57;20.53;;;9.87;;
5587;SDS011;2816;49.778;9.986;2024-02-26T07:59:24;20.47;;;9.97;;
5587;SDS011;2816;49.778;9.986;2024-02-26T08:01:51;21.73;;;10.70;;
5587;SDS011;2816;49.778;9.986;2024-02-26T08:04:18;21.47;;;10.00;;
5587;SDS011;2816;49.778;9.986;2024-02-26T08:06:46;18.60;;;10.47;;
5587;SDS011;2816;49.778;9.986;2024-02-26T08:09:13;13.43;;;8.37;;
5587;SDS011;2816;49.778;9.986;2024-02-26T08:11:41;14.90;;;8.80;;
5587;SDS011;2816;49.778;9.986;2024-02-26T08:14:08;20.63;;;9.60;;
5587;SDS011;2816;49.778;9.986;2024-02-26T08:16:35;13.97;;;8.97;;
5587;SDS011;2816;49.778;9.986;2024-02-26T08:19:02;17.00;;;9.40;;
5587;SDS011;2816;49.778;9.986;2024-02-26T08:21:29;18.33;;;10.70;;
5587;SDS011;2816;49.778;9.986;2024-02-26T08:23:57;16.70;;;10.00;;
5587;SDS011;2816;49.778;9.986;2024-02-26T08:26:24;14.67;;;10.00;;
5587;SDS011;2816;49.778;9.986;2024-02-26T08:28:51;18.37;;;10.70;;
5587;SDS011;2816;49.778;9.986;2024-02-26T08:31:19;21.77;;;10.03;;
5587;SDS011;2816;49.778;9.986;2024-02-26T08:33:48;20.57;;;9.63;;
5587;SDS011;2816;49.778;9.986;2024-02-26T08:36:15;15.63;;;8.10;;
5587;SDS011;2816;49.778;9.986;2024-02-26T08:38:42;16.63;;;10.43;;
5587;SDS011;2816;49.778;9.986;2024-02-26T08:41:10;14.20;;;7.87;;
5587;SDS011;2816;49.778;9.986;2024-02-26T08:43:38;15.40;;;9.90;;
5587;SDS011;2816;49.778;9.986;2024-02-26T08:46:08;15.67;;;9.70;;
5587;SDS011;2816;49.778;9.986;2024-02-26T08:48:35;19.10;;;10.23;;
5587;SDS011;2816;49.778;9.986;2024-02-26T08:51:04;16.07;;;9.20;;
5587;SDS011;2816;49.778;9.986;2024-02-26T08:53:32;15.93;;;9.10;;
5587;SDS011;2816;49.778;9.986;2024-02-26T08:55:59;19.00;;;9.57;;
5587;SDS011;2816;49.778;9.986;2024-02-26T08:58:28;16.77;;;8.97;;
5587;SDS011;2816;49.778;9.986;2024-02-26T09:00:55;14.07;;;8.87;;
5587;SDS011;2816;49.778;9.986;2024-02-26T09:03:22;16.20;;;8.93;;
5587;SDS011;2816;49.778;9.986;2024-02-26T09:05:49;14.97;;;10.07;;
5587;SDS011;2816;49.778;9.986;2024-02-26T09:08:16;21.57;;;9.13;;
5587;SDS011;2816;49.778;9.986;2024-02-26T09:10:43;14.10;;;9.57;;
5587;SDS011;2816;49.778;9.986;2024-02-26T09:13:10;19.10;;;10.17;;
5587;SDS011;2816;49.778;9.986;2024-02-26T09:15:38;17.13;;;9.47;;
5587;SDS011;2816;49.778;9.986;2024-02-26T09:18:05;19.63;;;9.00;;
5587;SDS011;2816;49.778;9.986;2024-02-26T09:20:32;13.97;;;8.93;;
5587;SDS011;2816;49.778;9.986;2024-02-26T09:22:59;16.60;;;9.57;;
5587;SDS011;2816;49.778;9.986;2024-02-26T09:25:25;11.47;;;8.33;;
5587;SDS011;2816;49.778;9.986;2024-02-26T09:27:52;15.23;;;9.63;;
5587;SDS011;2816;49.778;9.986;2024-02-26T09:30:19;15.10;;;8.83;;
5587;SDS011;2816;49.778;9.986;2024-02-26T09:32:48;17.47;;;9.57;;
5587;SDS011;2816;49.778;9.986;2024-02-26T09:35:15;17.07;;;9.20;;
5587;SDS011;2816;49.778;9.986;2024-02-26T09:37:42;15.50;;;8.10;;
5587;SDS011;2816;49.778;9.986;2024-02-26T09:40:09;15.87;;;8.67;;
5587;SDS011;2816;49.778;9.986;2024-02-26T09:42:38;14.90;;;8.20;;
5587;SDS011;2816;49.778;9.986;2024-02-26T09:45:09;13.97;;;8.83;;
5587;SDS011;2816;49.778;9.986;2024-02-26T09:47:38;12.40;;;8.30;;
5587;SDS011;2816;49.778;9.986;2024-02-26T09:50:07;14.20;;;8.57;;
5587;SDS011;2816;49.778;9.986;2024-02-26T09:52:37;15.97;;;8.53;;
5587;SDS011;2816;49.778;9.986;2024-02-26T09:55:06;8.53;;;7.33;;
5587;SDS011;2816;49.778;9.986;2024-02-26T09:57:35;18.57;;;8.03;;
5587;SDS011;2816;49.778;9.986;2024-02-26T10:00:03;10.60;;;6.70;;
5587;SDS011;2816;49.778;9.986;2024-02-26T10:02:34;12.33;;;8.10;;
5587;SDS011;2816;49.778;9.986;2024-02-26T10:05:04;12.43;;;7.03;;
5587;SDS011;2816;49.778;9.986;2024-02-26T10:07:34;10.03;;;6.43;;
5587;SDS011;2816;49.778;9.986;2024-02-26T10:10:02;10.67;;;6.70;;
5587;SDS011;2816;49.778;9.986;2024-02-26T10:12:30;10.57;;;6.50;;
5587;SDS011;2816;49.778;9.986;2024-02-26T10:14:57;10.57;;;6.17;;
5587;SDS011;2816;49.778;9.986;2024-02-26T10:17:24;16.10;;;7.00;;
5587;SDS011;2816;49.778;9.986;2024-02-26T10:19:53;10.53;;;6.10;;
5587;SDS011;2816;49.778;9.986;2024-02-26T10:22:21;12.43;;;6.53;;
5587;SDS011;2816;49.778;9.986;2024-02-26T10:24:50;9.60;;;6.67;;
5587;SDS011;2816;49.778;9.986;2024-02-26T10:27:17;6.50;;;5.10;;
5587;SDS011;2816;49.778;9.986;2024-02-26T10:29:45;7.57;;;5.90;;
5587;SDS011;2816;49.778;9.986;2024-02-26T10:32:12;8.17;;;5.70;;
5587;SDS011;2816;49.778;9.986;2024-02-26T10:34:39;9.23;;;5.40;;
5587;SDS011;2816;49.778;9.986;2024-02-26T10:37:07;7.80;;;4.73;;
5587;SDS011;2816;49.778;9.986;2024-02-26T10:39:36;7.97;;;5.27;;
5587;SDS011;2816;49.778;9.986;2024-02-26T10:42:05;9.43;;;5.00;;
5587;SDS011;2816;49.778;9.986;2024-02-26T10:44:39;8.83;;;5.63;;
5587;SDS011;2816;49.778;9.986;2024-02-26T10:47:08;6.30;;;4.97;;
5587;SDS011;2816;49.778;9.986;2024-02-26T10:49:35;5.67;;;4.97;;
5587;SDS011;2816;49.778;9.986;2024-02-26T10:52:02;8.60;;;5.13;;
5587;SDS011;2816;49.778;9.986;2024-02-26T10:54:32;6.77;;;4.80;;
5587;SDS011;2816;49.778;9.986;2024-02-26T10:57:01;9.53;;;5.70;;
5587;SDS011;2816;49.778;9.986;2024-02-26T10:59:31;7.63;;;5.10;;
5587;SDS011;2816;49.778;9.986;2024-02-26T11:02:00;5.77;;;4.40;;
5587;SDS011;2816;49.778;9.986;2024-02-26T11:04:28;6.70;;;5.00;;
5587;SDS011;2816;49.778;9.986;2024-02-26T11:06:57;10.00;;;5.00;;
5587;SDS011;2816;49.778;9.986;2024-02-26T11:09:24;9.07;;;5.00;;
5587;SDS011;2816;49.778;9.986;2024-02-26T11:11:53;9.07;;;5.03;;
5587;SDS011;2816;49.778;9.986;2024-02-26T11:14:23;5.53;;;4.70;;
5587;SDS011;2816;49.778;9.986;2024-02-26T11:16:52;8.20;;;5.13;;
5587;SDS011;2816;49.778;9.986;2024-02-26T11:19:20;5.83;;;4.83;;
5587;SDS011;2816;49.778;9.986;2024-02-26T11:21:47;7.77;;;4.90;;
5587;SDS011;2816;49.778;9.986;2024-02-26T11:24:15;9.87;;;5.50;;
5587;SDS011;2816;49.778;9.986;2024-02-26T11:26:44;17.97;;;4.80;;
5587;SDS011;2816;49.778;9.986;2024-02-26T11:29:16;9.53;;;4.83;;
5587;SDS011;2816;49.778;9.986;2024-02-26T11:31:46;5.17;;;3.60;;
5587;SDS011;2816;49.778;9.986;2024-02-26T11:34:15;8.90;;;4.13;;
5587;SDS011;2816;49.778;9.986;2024-02-26T11:36:43;6.97;;;4.00;;
5587;SDS011;2816;49.778;9.986;2024-02-26T11:39:11;4.67;;;3.70;;
5587;SDS011;2816;49.778;9.986;2024-02-26T11:41:41;5.53;;;3.83;;
5587;SDS011;2816;49.778;9.986;2024-02-26T11:44:08;3.67;;;3.37;;
5587;SDS011;2816;49.778;9.986;2024-02-26T11:46:38;4.23;;;3.60;;
5587;SDS011;2816;49.778;9.986;2024-02-26T11:52:00;5.43;;;3.40;;
5587;SDS011;2816;49.778;9.986;2024-02-26T11:54:38;5.80;;;3.67;;
5587;SDS011;2816;49.778;9.986;2024-02-26T11:57:22;4.03;;;3.40;;
5587;SDS011;2816;49.778;9.986;2024-02-26T11:59:50;9.30;;;3.03;;
5587;SDS011;2816;49.778;9.986;2024-02-26T12:05:06;4.97;;;3.50;;
5587;SDS011;2816;49.778;9.986;2024-02-26T12:07:36;4.90;;;3.70;;
5587;SDS011;2816;49.778;9.986;2024-02-26T12:10:16;4.40;;;3.13;;
5587;SDS011;2816;49.778;9.986;2024-02-26T12:12:47;7.47;;;3.40;;
5587;SDS011;2816;49.778;9.986;2024-02-26T12:15:15;5.20;;;3.37;;
5587;SDS011;2816;49.778;9.986;2024-02-26T12:17:46;4.97;;;3.03;;
5587;SDS011;2816;49.778;9.986;2024-02-26T12:20:17;3.33;;;3.00;;
5587;SDS011;2816;49.778;9.986;2024-02-26T12:22:45;5.63;;;3.03;;
5587;SDS011;2816;49.778;9.986;2024-02-26T12:25:13;4.20;;;3.00;;
5587;SDS011;2816;49.778;9.986;2024-02-26T12:27:40;3.43;;;3.13;;
5587;SDS011;2816;49.778;9.986;2024-02-26T12:30:08;8.20;;;2.77;;
5587;SDS011;2816;49.778;9.986;2024-02-26T12:32:35;4.13;;;3.47;;
5587;SDS011;2816;49.778;9.986;2024-02-26T12:35:03;5.60;;;3.10;;
5587;SDS011;2816;49.778;9.986;2024-02-26T12:37:33;9.90;;;2.83;;
5587;SDS011;2816;49.778;9.986;2024-02-26T12:40:03;6.80;;;3.00;;
5587;SDS011;2816;49.778;9.986;2024-02-26T12:42:32;6.40;;;3.00;;
5587;SDS011;2816;49.778;9.986;2024-02-26T12:45:04;10.00;;;3.33;;
5587;SDS011;2816;49.778;9.986;2024-02-26T12:47:34;4.10;;;3.20;;
5587;SDS011;2816;49.778;9.986;2024-02-26T12:50:02;4.03;;;3.10;;
5587;SDS011;2816;49.778;9.986;2024-02-26T12:52:30;7.40;;;3.30;;
5587;SDS011;2816;49.778;9.986;2024-02-26T12:54:59;6.03;;;3.17;;
5587;SDS011;2816;49.778;9.986;2024-02-26T12:57:27;5.97;;;2.50;;
5587;SDS011;2816;49.778;9.986;2024-02-26T12:59:55;2.73;;;2.53;;
5587;SDS011;2816;49.778;9.986;2024-02-26T13:02:22;6.10;;;2.73;;
5587;SDS011;2816;49.778;9.986;2024-02-26T13:04:50;7.30;;;3.47;;
5587;SDS011;2816;49.778;9.986;2024-02-26T13:07:17;3.37;;;2.77;;
5587;SDS011;2816;49.778;9.986;2024-02-26T13:09:45;4.23;;;2.87;;
5587;SDS011;2816;49.778;9.986;2024-02-26T13:12:12;5.50;;;2.90;;
5587;SDS011;2816;49.778;9.986;2024-02-26T13:14:39;4.47;;;3.10;;
5587;SDS011;2816;49.778;9.986;2024-02-26T13:17:08;4.37;;;3.10;;
5587;SDS011;2816;49.778;9.986;2024-02-26T13:19:35;4.47;;;2.80;;
5587;SDS011;2816;49.778;9.986;2024-02-26T13:22:05;7.60;;;4.20;;
5587;SDS011;2816;49.778;9.986;2024-02-26T13:24:32;6.40;;;2.90;;
5587;SDS011;2816;49.778;9.986;2024-02-26T13:27:01;4.17;;;2.53;;
5587;SDS011;2816;49.778;9.986;2024-02-26T13:29:31;4.07;;;2.97;;
5587;SDS011;2816;49.778;9.986;2024-02-26T13:31:58;3.43;;;2.70;;
5587;SDS011;2816;49.778;9.986;2024-02-26T13:34:25;5.50;;;3.00;;
5587;SDS011;2816;49.778;9.986;2024-02-26T13:36:53;4.47;;;2.80;;
5587;SDS011;2816;49.778;9.986;2024-02-26T13:39:23;3.87;;;3.23;;
5587;SDS011;2816;49.778;9.986;2024-02-26T13:41:51;4.03;;;3.20;;
5587;SDS011;2816;49.778;9.986;2024-02-26T13:44:19;4.00;;;2.83;;
5587;SDS011;2816;49.778;9.986;2024-02-26T13:46:47;3.50;;;2.67;;
5587;SDS011;2816;49.778;9.986;2024-02-26T13:49:14;8.77;;;2.87;;
5587;SDS011;2816;49.778;9.986;2024-02-26T13:51:41;2.83;;;2.57;;
5587;SDS011;2816;49.778;9.986;2024-02-26T13:54:08;9.50;;;3.20;;
5587;SDS011;2816;49.778;9.986;2024-02-26T13:56:35;3.00;;;2.57;;
5587;SDS011;2816;49.778;9.986;2024-02-26T13:59:02;3.27;;;2.67;;
5587;SDS011;2816;49.778;9.986;2024-02-26T14:01:31;11.50;;;2.90;;
5587;SDS011;2816;49.778;9.986;2024-02-26T14:03:59;5.00;;;2.70;;
5587;SDS011;2816;49.778;9.986;2024-02-26T14:06:27;7.70;;;2.80;;
5587;SDS011;2816;49.778;9.986;2024-02-26T14:08:56;3.40;;;2.57;;
5587;SDS011;2816;49.778;9.986;2024-02-26T14:11:23;6.40;;;2.73;;
5587;SDS011;2816;49.778;9.986;2024-02-26T14:13:50;2.80;;;2.50;;
5587;SDS011;2816;49.778;9.986;2024-02-26T14:16:18;4.20;;;2.50;;
5587;SDS011;2816;49.778;9.986;2024-02-26T14:18:46;2.30;;;2.10;;
5587;SDS011;2816;49.778;9.986;2024-02-26T14:21:13;3.27;;;2.30;;
5587;SDS011;2816;49.778;9.986;2024-02-26T14:23:40;2.73;;;2.30;;
5587;SDS011;2816;49.778;9.986;2024-02-26T14:26:09;8.77;;;2.67;;
5587;SDS011;2816;49.778;9.986;2024-02-26T14:28:36;3.13;;;2.67;;
5587;SDS011;2816;49.778;9.986;2024-02-26T14:31:05;3.30;;;2.97;;
5587;SDS011;2816;49.778;9.986;2024-02-26T14:33:32;4.53;;;2.93;;
5587;SDS011;2816;49.778;9.986;2024-02-26T14:36:00;3.43;;;2.63;;
5587;SDS011;2816;49.778;9.986;2024-02-26T14:38:27;4.03;;;2.47;;
5587;SDS011;2816;49.778;9.986;2024-02-26T14:40:55;6.27;;;2.93;;
5587;SDS011;2816;49.778;9.986;2024-02-26T14:43:22;3.70;;;2.87;;
5587;SDS011;2816;49.778;9.986;2024-02-26T14:45:49;3.83;;;2.40;;
5587;SDS011;2816;49.778;9.986;2024-02-26T14:48:16;3.30;;;2.70;;
5587;SDS011;2816;49.778;9.986;2024-02-26T14:50:43;4.33;;;2.87;;
5587;SDS011;2816;49.778;9.986;2024-02-26T14:53:12;4.13;;;2.70;;
5587;SDS011;2816;49.778;9.986;2024-02-26T14:55:39;3.83;;;2.87;;
5587;SDS011;2816;49.778;9.986;2024-02-26T14:58:05;3.80;;;3.00;;
5587;SDS011;2816;49.778;9.986;2024-02-26T15:00:32;6.17;;;3.00;;
5587;SDS011;2816;49.778;9.986;2024-02-26T15:03:00;6.30;;;3.20;;
5587;SDS011;2816;49.778;9.986;2024-02-26T15:05:27;3.70;;;2.57;;
5587;SDS011;2816;49.778;9.986;2024-02-26T15:07:54;4.30;;;3.57;;
5587;SDS011;2816;49.778;9.986;2024-02-26T15:10:22;4.00;;;2.90;;
5587;SDS011;2816;49.778;9.986;2024-02-26T15:12:49;4.27;;;2.90;;
5587;SDS011;2816;49.778;9.986;2024-02-26T15:15:19;3.23;;;2.90;;
5587;SDS011;2816;49.778;9.986;2024-02-26T15:17:47;3.60;;;3.00;;